Time;durP1;ratioP1;P1;durP2;ratioP2;P2;SDS_P1;SDS_P2;PMS_P1;PMS_P2;Temp;Humidity;BMP_temperature;BMP_pressure;BME280_temperature;BME280_humidity;BME280_pressure;Samples;Min_cycle;Max_cycle;Signal;HPM_P1;HPM_P2
2023/05/17 00:00:17;;;;;;;3.83;1.90;;;13.70;71.80;;;;;;5073249;28;20483;-58
2023/05/17 00:02:43;;;;;;;2.20;1.67;;;13.60;71.90;;;;;;5073347;28;20440;-57
2023/05/17 00:05:11;;;;;;;3.93;2.47;;;13.60;72.10;;;;;;5073299;28;20474;-58
2023/05/17 00:07:38;;;;;;;3.67;2.00;;;13.60;72.10;;;;;;5073167;28;20449;-58
2023/05/17 00:10:07;;;;;;;3.67;2.03;;;13.50;72.40;;;;;;5072875;28;20457;-58
2023/05/17 00:12:34;;;;;;;2.10;1.90;;;13.50;72.60;;;;;;5072866;28;20872;-57
2023/05/17 00:15:00;;;;;;;6.77;1.73;;;13.40;73.20;;;;;;5073157;28;20533;-58
2023/05/17 00:17:27;;;;;;;5.80;1.93;;;13.30;73.40;;;;;;5073299;28;20453;-57
2023/05/17 00:19:54;;;;;;;4.37;2.57;;;13.10;73.30;;;;;;5073152;28;20484;-57
2023/05/17 00:22:20;;;;;;;1.80;1.70;;;13.10;74.00;;;;;;5073192;28;20448;-58
2023/05/17 00:24:47;;;;;;;3.40;1.87;;;13.00;75.20;;;;;;5073075;28;20469;-58
2023/05/17 00:27:15;;;;;;;2.73;1.80;;;13.10;76.50;;;;;;5072854;28;20449;-57
2023/05/17 00:29:42;;;;;;;4.00;1.90;;;13.00;76.60;;;;;;5072742;28;20821;-57
2023/05/17 00:32:08;;;;;;;6.37;2.23;;;13.00;76.90;;;;;;5073010;28;20452;-57
2023/05/17 00:34:35;;;;;;;4.13;2.40;;;13.00;77.20;;;;;;5073020;28;20475;-57
2023/05/17 00:37:02;;;;;;;2.40;2.03;;;12.90;77.20;;;;;;5075663;28;20479;-57
2023/05/17 00:39:29;;;;;;;3.30;2.40;;;12.90;77.80;;;;;;5076968;28;20452;-57
2023/05/17 00:41:56;;;;;;;4.10;2.40;;;12.90;79.40;;;;;;5076920;28;20441;-57
2023/05/17 00:44:24;;;;;;;7.17;3.40;;;12.80;78.70;;;;;;5076908;28;20448;-57
2023/05/17 00:46:50;;;;;;;3.73;2.70;;;12.80;79.10;;;;;;5076646;28;20938;-57
2023/05/17 00:49:18;;;;;;;5.33;3.10;;;12.80;79.20;;;;;;5076765;28;20806;-57
2023/05/17 00:51:45;;;;;;;11.60;3.60;;;12.70;79.20;;;;;;5076733;28;20451;-57
2023/05/17 00:54:13;;;;;;;4.50;4.13;;;12.70;79.50;;;;;;5076727;28;20449;-57
2023/05/17 00:56:39;;;;;;;4.00;2.97;;;12.50;79.60;;;;;;5076651;28;20455;-57
2023/05/17 00:59:07;;;;;;;6.90;4.00;;;12.50;80.30;;;;;;5076598;28;20444;-56
2023/05/17 01:01:37;;;;;;;7.20;3.50;;;12.50;81.40;;;;;;5076457;28;20484;-57
2023/05/17 01:04:03;;;;;;;5.10;3.80;;;12.40;81.40;;;;;;5076386;28;20452;-57
2023/05/17 01:06:30;;;;;;;5.17;3.10;;;12.40;82.40;;;;;;5076375;28;20444;-57
2023/05/17 01:08:57;;;;;;;6.00;3.33;;;12.40;82.70;;;;;;5076015;28;20973;-57
2023/05/17 01:11:32;;;;;;;5.73;3.60;;;12.40;83.50;;;;;;5076383;28;20448;-57
2023/05/17 01:14:03;;;;;;;4.77;3.13;;;12.30;83.70;;;;;;5076418;28;20432;-57
2023/05/17 01:16:33;;;;;;;7.13;4.47;;;12.40;84.80;;;;;;5075984;28;20929;-56
2023/05/17 01:19:11;;;;;;;8.47;3.70;;;12.40;84.50;;;;;;5076293;28;20499;-56
2023/05/17 01:21:56;;;;;;;6.00;3.67;;;12.30;84.60;;;;;;5076121;28;20472;-57
2023/05/17 01:24:28;;;;;;;9.23;3.97;;;12.30;85.00;;;;;;5076102;28;20444;-57
2023/05/17 01:26:58;;;;;;;6.23;3.80;;;12.30;85.70;;;;;;5076094;28;20452;-57
2023/05/17 01:29:29;;;;;;;11.33;3.90;;;12.20;85.90;;;;;;5075764;28;20854;-57
2023/05/17 01:31:57;;;;;;;9.43;3.53;;;12.20;86.70;;;;;;5076160;28;20425;-57
2023/05/17 01:34:27;;;;;;;8.13;3.57;;;12.20;86.70;;;;;;5076102;28;20480;-57
2023/05/17 01:36:54;;;;;;;8.07;4.07;;;12.20;87.00;;;;;;5076148;28;20453;-57
2023/05/17 01:39:20;;;;;;;4.97;3.70;;;12.10;86.80;;;;;;5077250;28;20451;-57
2023/05/17 01:41:54;;;;;;;4.70;3.37;;;12.00;87.30;;;;;;5076905;28;20485;-57
2023/05/17 01:44:29;;;;;;;7.30;3.80;;;12.10;88.80;;;;;;5076295;28;20432;-57
2023/05/17 01:47:01;;;;;;;5.03;3.30;;;12.10;89.10;;;;;;5075477;28;20436;-57
2023/05/17 01:49:31;;;;;;;9.20;3.97;;;12.10;88.80;;;;;;5075920;28;20436;-57
2023/05/17 01:52:05;;;;;;;5.37;3.50;;;12.10;88.40;;;;;;5075828;28;20421;-57
2023/05/17 01:54:39;;;;;;;7.07;4.30;;;12.00;88.20;;;;;;5075777;28;20555;-57
2023/05/17 01:57:07;;;;;;;9.10;4.63;;;11.90;89.00;;;;;;5075693;28;20436;-57
2023/05/17 01:59:37;;;;;;;12.03;3.80;;;11.90;89.40;;;;;;5075591;28;20480;-57
2023/05/17 02:02:07;;;;;;;9.00;4.30;;;12.00;89.30;;;;;;5075306;28;21008;-57
2023/05/17 02:04:35;;;;;;;5.77;4.10;;;12.00;89.30;;;;;;5075396;28;20468;-57
2023/05/17 02:07:02;;;;;;;3.90;3.50;;;12.00;89.10;;;;;;5075488;28;20456;-57
2023/05/17 02:09:29;;;;;;;8.53;3.63;;;12.10;89.10;;;;;;5075113;28;20492;-57
2023/05/17 02:11:56;;;;;;;5.77;3.70;;;12.00;88.60;;;;;;5075422;28;20445;-56
2023/05/17 02:14:23;;;;;;;6.00;3.00;;;12.00;88.70;;;;;;5075274;28;20456;-57
2023/05/17 02:16:51;;;;;;;6.30;3.50;;;11.90;88.60;;;;;;5074986;28;20938;-57
2023/05/17 02:19:17;;;;;;;6.40;4.33;;;11.90;88.60;;;;;;5075230;28;20452;-57
2023/05/17 02:21:44;;;;;;;7.77;4.20;;;11.80;89.30;;;;;;5075084;28;20484;-57
2023/05/17 02:24:11;;;;;;;8.73;4.80;;;11.80;90.00;;;;;;5075364;28;20457;-57
2023/05/17 02:26:41;;;;;;;8.70;4.10;;;11.80;89.30;;;;;;5075295;28;20480;-57
2023/05/17 02:29:08;;;;;;;5.73;3.23;;;11.80;88.70;;;;;;5074706;28;20937;-56
2023/05/17 02:31:35;;;;;;;7.30;4.40;;;11.80;88.80;;;;;;5074748;28;20441;-57
2023/05/17 02:34:03;;;;;;;11.70;4.67;;;11.80;88.90;;;;;;5074878;28;20448;-57
2023/05/17 02:36:29;;;;;;;14.30;4.90;;;11.70;89.10;;;;;;5074842;28;20514;-57
2023/05/17 02:38:56;;;;;;;4.43;3.53;;;11.60;89.30;;;;;;5074910;28;20513;-57
2023/05/17 02:41:23;;;;;;;7.60;4.10;;;11.60;89.30;;;;;;5074667;28;20487;-57
2023/05/17 02:43:49;;;;;;;9.43;4.30;;;11.50;90.00;;;;;;5075528;28;20516;-57
2023/05/17 02:46:16;;;;;;;7.87;4.47;;;11.40;90.10;;;;;;5074858;28;20472;-57
2023/05/17 02:48:43;;;;;;;8.33;4.23;;;11.40;90.20;;;;;;5074409;28;20821;-57
2023/05/17 02:51:11;;;;;;;9.50;4.30;;;11.30;90.20;;;;;;5074537;28;20451;-57
2023/05/17 02:53:38;;;;;;;10.10;4.40;;;11.30;90.30;;;;;;5074554;28;20456;-57
2023/05/17 02:56:05;;;;;;;9.63;4.77;;;11.30;90.40;;;;;;5074656;28;20464;-57
2023/05/17 02:58:31;;;;;;;6.60;4.57;;;11.20;90.90;;;;;;5073585;28;20451;-57
2023/05/17 03:00:58;;;;;;;5.60;4.53;;;11.20;91.40;;;;;;5074342;28;20481;-57
2023/05/17 03:03:25;;;;;;;8.63;4.53;;;11.30;91.10;;;;;;5074494;28;20444;-57
2023/05/17 03:05:51;;;;;;;8.87;4.97;;;11.20;90.80;;;;;;5074637;28;20469;-57
2023/05/17 03:08:20;;;;;;;8.03;4.73;;;11.30;90.70;;;;;;5074039;28;20471;-57
2023/05/17 03:10:46;;;;;;;11.03;5.23;;;11.30;90.60;;;;;;5075015;28;20428;-57
2023/05/17 03:13:13;;;;;;;9.23;5.50;;;11.20;90.50;;;;;;5074094;28;20935;-57
2023/05/17 03:15:40;;;;;;;8.43;4.77;;;11.20;90.80;;;;;;5074179;28;20985;-57
2023/05/17 03:18:06;;;;;;;6.93;4.73;;;11.20;91.10;;;;;;5073962;28;20473;-57
2023/05/17 03:20:33;;;;;;;6.53;4.70;;;11.30;91.00;;;;;;5077055;28;20499;-59
2023/05/17 03:23:00;;;;;;;10.13;5.00;;;11.20;90.70;;;;;;5077022;28;20818;-58
2023/05/17 03:25:28;;;;;;;8.20;5.20;;;11.20;91.00;;;;;;5077225;28;20469;-57
2023/05/17 03:27:54;;;;;;;15.60;5.50;;;11.20;91.00;;;;;;5074966;28;20455;-57
2023/05/17 03:30:21;;;;;;;7.63;4.93;;;11.20;91.10;;;;;;5074591;28;20453;-57
2023/05/17 03:32:48;;;;;;;6.20;4.70;;;11.10;91.20;;;;;;5073571;28;20962;-57
2023/05/17 03:35:15;;;;;;;8.37;5.80;;;11.10;91.40;;;;;;5073447;28;20978;-57
2023/05/17 03:37:41;;;;;;;9.60;5.70;;;11.10;91.60;;;;;;5073626;28;20452;-57
2023/05/17 03:40:08;;;;;;;8.40;5.53;;;11.10;91.50;;;;;;5073630;28;20444;-57
2023/05/17 03:42:37;;;;;;;6.60;4.63;;;11.10;91.60;;;;;;5073251;28;20832;-57
2023/05/17 03:45:04;;;;;;;11.27;6.00;;;11.20;91.60;;;;;;5073501;28;20534;-57
2023/05/17 03:47:31;;;;;;;8.40;5.77;;;11.10;91.60;;;;;;5073548;28;20452;-57
2023/05/17 03:49:57;;;;;;;8.70;6.33;;;11.10;91.80;;;;;;5073465;28;20502;-57
2023/05/17 03:52:24;;;;;;;9.97;5.77;;;11.10;91.70;;;;;;5074175;28;20475;-57
2023/05/17 03:54:51;;;;;;;12.60;6.43;;;11.00;91.50;;;;;;5073359;28;20479;-57
2023/05/17 03:57:18;;;;;;;13.23;6.73;;;11.00;91.70;;;;;;5073409;28;20455;-57
2023/05/17 03:59:46;;;;;;;11.10;6.20;;;11.00;91.80;;;;;;5073420;28;20452;-57
2023/05/17 04:02:15;;;;;;;11.27;7.33;;;10.90;92.10;;;;;;5073031;28;20529;-57
2023/05/17 04:04:41;;;;;;;12.80;7.03;;;10.90;92.40;;;;;;5073266;28;20910;-57
2023/05/17 04:07:08;;;;;;;14.77;6.90;;;10.80;92.70;;;;;;5073354;28;20792;-57
2023/05/17 04:09:35;;;;;;;7.97;6.87;;;10.80;93.10;;;;;;5072742;28;20462;-57
2023/05/17 04:12:01;;;;;;;15.20;7.40;;;10.80;93.40;;;;;;5073223;28;20445;-57
2023/05/17 04:14:28;;;;;;;12.30;7.33;;;10.80;93.60;;;;;;5073173;28;20464;-57
2023/05/17 04:16:56;;;;;;;10.20;7.03;;;10.80;93.80;;;;;;5073315;28;20455;-57
2023/05/17 04:19:23;;;;;;;11.67;7.10;;;10.90;94.10;;;;;;5073218;28;20444;-57
2023/05/17 04:21:50;;;;;;;11.80;7.00;;;10.90;94.40;;;;;;5073257;28;20487;-57
2023/05/17 04:24:17;;;;;;;17.40;6.90;;;10.90;94.50;;;;;;5072750;28;20977;-57
2023/05/17 04:26:44;;;;;;;10.87;7.00;;;11.00;94.50;;;;;;5073112;28;20456;-57
2023/05/17 04:29:12;;;;;;;14.60;7.53;;;11.00;94.60;;;;;;5072716;28;20962;-57
2023/05/17 04:31:39;;;;;;;14.67;9.03;;;11.00;94.80;;;;;;5073064;28;20455;-57
2023/05/17 04:34:08;;;;;;;13.37;7.47;;;11.10;95.10;;;;;;5073051;28;20460;-57
2023/05/17 04:36:35;;;;;;;12.23;6.77;;;11.20;95.30;;;;;;5073396;28;20456;-57
2023/05/17 04:39:02;;;;;;;10.43;7.10;;;11.20;95.20;;;;;;5073219;28;20460;-57
2023/05/17 04:41:30;;;;;;;10.60;6.70;;;11.20;95.40;;;;;;5073500;28;21002;-57
2023/05/17 04:43:57;;;;;;;14.03;8.03;;;11.20;95.60;;;;;;5074233;28;20965;-57
2023/05/17 04:46:24;;;;;;;12.50;8.13;;;11.30;95.70;;;;;;5073750;28;20488;-57
2023/05/17 04:48:50;;;;;;;13.10;7.63;;;11.30;95.90;;;;;;5074084;28;20444;-57
2023/05/17 04:51:18;;;;;;;11.47;7.50;;;11.30;96.20;;;;;;5073136;28;20445;-57
2023/05/17 04:53:45;;;;;;;12.60;7.63;;;11.30;96.30;;;;;;5073356;28;20445;-57
2023/05/17 04:56:12;;;;;;;21.73;11.03;;;11.30;96.40;;;;;;5072965;28;20518;-57
2023/05/17 04:58:38;;;;;;;17.27;9.30;;;11.40;96.50;;;;;;5072974;28;20444;-57
2023/05/17 05:01:05;;;;;;;11.73;7.30;;;11.40;96.70;;;;;;5072834;28;20521;-57
2023/05/17 05:03:32;;;;;;;15.97;7.73;;;11.40;96.70;;;;;;5072944;28;20448;-57
2023/05/17 05:05:59;;;;;;;12.33;8.63;;;11.50;96.80;;;;;;5072756;28;20464;-57
2023/05/17 05:08:27;;;;;;;11.50;7.50;;;11.50;96.90;;;;;;5072449;28;20950;-58
2023/05/17 05:10:54;;;;;;;16.90;8.57;;;11.60;96.80;;;;;;5072878;28;20445;-57
2023/05/17 05:13:21;;;;;;;11.60;7.97;;;11.70;96.80;;;;;;5072423;28;20444;-57
2023/05/17 05:15:48;;;;;;;15.53;8.17;;;11.80;96.70;;;;;;5072635;28;20552;-56
2023/05/17 05:18:15;;;;;;;19.70;8.17;;;11.90;96.50;;;;;;5073292;28;20455;-57
2023/05/17 05:20:43;;;;;;;19.50;9.50;;;12.00;96.20;;;;;;5072675;28;20449;-57
2023/05/17 05:23:09;;;;;;;19.60;8.10;;;12.10;96.10;;;;;;5075137;28;20479;-57
2023/05/17 05:25:37;;;;;;;14.00;7.20;;;12.10;96.30;;;;;;5075752;28;21002;-57
2023/05/17 05:28:05;;;;;;;17.17;7.53;;;12.30;96.10;;;;;;5076507;28;20448;-57
2023/05/17 05:30:32;;;;;;;17.87;7.20;;;12.40;96.00;;;;;;5075976;28;20451;-57
2023/05/17 05:32:58;;;;;;;16.27;7.80;;;12.50;96.00;;;;;;5076082;28;20467;-57
2023/05/17 05:35:28;;;;;;;15.63;7.90;;;12.60;95.70;;;;;;5076019;28;20473;-57
2023/05/17 05:37:56;;;;;;;15.13;7.27;;;12.70;95.80;;;;;;5075496;28;20825;-58
2023/05/17 05:40:22;;;;;;;14.97;8.80;;;12.80;95.80;;;;;;5075958;28;20852;-57
2023/05/17 05:42:51;;;;;;;16.13;7.43;;;12.90;95.80;;;;;;5075791;28;20480;-57
2023/05/17 05:45:17;;;;;;;14.73;7.63;;;13.00;95.70;;;;;;5075763;28;20471;-57
2023/05/17 05:47:44;;;;;;;12.53;6.60;;;13.10;95.50;;;;;;5075831;28;20502;-57
2023/05/17 05:50:11;;;;;;;14.83;8.07;;;13.20;95.10;;;;;;5075677;28;20445;-58
2023/05/17 05:52:38;;;;;;;14.63;7.57;;;13.30;95.00;;;;;;5075692;28;20453;-57
2023/05/17 05:55:05;;;;;;;19.90;7.87;;;13.50;95.00;;;;;;5075273;28;20846;-57
2023/05/17 05:57:32;;;;;;;12.07;6.70;;;13.50;94.70;;;;;;5075353;28;20958;-57
2023/05/17 06:00:00;;;;;;;17.90;6.70;;;13.50;94.20;;;;;;5075568;28;20444;-57
2023/05/17 06:02:26;;;;;;;12.33;6.67;;;13.60;94.10;;;;;;5075123;28;20993;-58
2023/05/17 06:04:53;;;;;;;16.80;7.50;;;13.70;94.00;;;;;;5075384;28;20854;-58
2023/05/17 06:07:20;;;;;;;15.53;6.20;;;13.80;94.10;;;;;;5075453;28;20456;-57
2023/05/17 06:09:46;;;;;;;14.17;5.80;;;13.90;93.40;;;;;;5074981;28;20861;-57
2023/05/17 06:12:13;;;;;;;15.20;6.20;;;13.90;92.70;;;;;;5075332;28;20870;-57
2023/05/17 06:14:40;;;;;;;11.77;4.90;;;13.90;92.00;;;;;;5075182;28;20460;-57
2023/05/17 06:17:08;;;;;;;15.90;6.30;;;14.00;91.40;;;;;;5075233;28;20506;-57
2023/05/17 06:19:35;;;;;;;11.07;5.57;;;14.10;91.70;;;;;;5075110;28;20452;-58
2023/05/17 06:22:01;;;;;;;16.43;6.90;;;14.20;91.60;;;;;;5075045;28;20538;-57
2023/05/17 06:24:28;;;;;;;15.93;6.47;;;14.30;91.30;;;;;;5074997;28;20498;-58
2023/05/17 06:26:55;;;;;;;16.57;5.60;;;14.30;91.20;;;;;;5075026;28;20449;-58
2023/05/17 06:29:22;;;;;;;13.93;4.93;;;14.40;91.20;;;;;;5075027;28;20455;-57
2023/05/17 06:31:49;;;;;;;12.80;4.80;;;14.50;90.60;;;;;;5075055;28;20573;-57
2023/05/17 06:34:17;;;;;;;14.73;5.27;;;14.50;89.50;;;;;;5074655;28;20449;-57
2023/05/17 06:36:44;;;;;;;12.60;4.70;;;14.60;88.30;;;;;;5074809;28;20452;-57
2023/05/17 06:39:10;;;;;;;10.27;4.07;;;14.70;87.50;;;;;;5074703;28;20818;-57
2023/05/17 06:41:37;;;;;;;15.37;6.57;;;14.80;88.20;;;;;;5075048;28;20522;-57
2023/05/17 06:44:04;;;;;;;15.17;5.23;;;14.90;87.40;;;;;;5074360;28;20448;-57
2023/05/17 06:46:31;;;;;;;11.63;6.37;;;14.90;86.30;;;;;;5074568;28;20456;-57
2023/05/17 06:48:58;;;;;;;14.63;5.00;;;14.90;85.90;;;;;;5074541;28;20448;-57
2023/05/17 06:51:26;;;;;;;11.67;5.20;;;15.00;85.50;;;;;;5074414;28;20502;-57
2023/05/17 06:53:52;;;;;;;9.50;3.60;;;15.20;85.10;;;;;;5074380;28;20452;-57
2023/05/17 06:56:19;;;;;;;11.77;4.23;;;15.30;84.30;;;;;;5074288;28;20475;-57
2023/05/17 06:58:46;;;;;;;10.07;4.43;;;15.50;82.40;;;;;;5074365;28;20494;-58
2023/05/17 07:01:13;;;;;;;9.70;3.70;;;15.60;81.50;;;;;;5074320;28;20800;-58
2023/05/17 07:03:39;;;;;;;8.47;3.73;;;15.80;81.90;;;;;;5074247;28;20549;-58
2023/05/17 07:06:06;;;;;;;12.00;4.30;;;15.90;80.10;;;;;;5074044;28;20472;-57
2023/05/17 07:08:34;;;;;;;16.30;4.67;;;16.10;78.90;;;;;;5073988;28;20460;-58
2023/05/17 07:11:01;;;;;;;18.43;5.27;;;16.20;77.10;;;;;;5074787;28;20457;-57
2023/05/17 07:13:28;;;;;;;13.37;5.00;;;16.20;75.80;;;;;;5074097;28;20488;-57
2023/05/17 07:15:55;;;;;;;13.50;4.20;;;16.20;74.70;;;;;;5073944;28;20469;-57
2023/05/17 07:18:21;;;;;;;8.60;3.07;;;16.30;73.40;;;;;;5074001;28;20441;-58
2023/05/17 07:20:48;;;;;;;8.30;3.23;;;16.40;74.10;;;;;;5074455;28;20444;-58
2023/05/17 07:23:15;;;;;;;14.97;4.10;;;16.50;72.40;;;;;;5073856;28;20476;-57
2023/05/17 07:25:43;;;;;;;11.67;4.03;;;16.60;71.90;;;;;;5073789;28;20472;-56
2023/05/17 07:28:10;;;;;;;10.00;3.60;;;16.70;70.20;;;;;;5073440;28;20938;-57
2023/05/17 07:30:36;;;;;;;7.60;3.30;;;16.80;69.10;;;;;;5073482;28;20502;-58
2023/05/17 07:33:03;;;;;;;10.17;3.80;;;16.90;70.60;;;;;;5073405;28;20801;-57
2023/05/17 07:35:29;;;;;;;10.70;3.90;;;17.10;70.70;;;;;;5073667;28;20468;-57
2023/05/17 07:37:56;;;;;;;8.30;3.07;;;17.50;70.00;;;;;;5073641;28;20451;-57
2023/05/17 07:40:23;;;;;;;13.90;3.73;;;17.70;67.00;;;;;;5073840;28;20445;-58
2023/05/17 07:42:51;;;;;;;8.10;2.90;;;17.90;64.80;;;;;;5073668;28;20487;-57
2023/05/17 07:45:18;;;;;;;10.03;3.00;;;17.90;62.70;;;;;;5074273;28;20476;-57
2023/05/17 07:47:45;;;;;;;6.53;2.87;;;17.90;61.20;;;;;;5074582;28;20954;-57
2023/05/17 07:50:12;;;;;;;9.50;3.10;;;17.80;61.40;;;;;;5074049;28;20460;-57
2023/05/17 07:52:39;;;;;;;7.67;2.90;;;17.80;59.70;;;;;;5073757;28;20452;-58
2023/05/17 07:55:06;;;;;;;15.50;3.17;;;17.90;59.20;;;;;;5073499;28;20471;-57
2023/05/17 07:57:33;;;;;;;8.30;2.93;;;17.90;58.30;;;;;;5073600;28;20448;-57
2023/05/17 08:00:01;;;;;;;10.43;2.90;;;17.90;57.40;;;;;;5073557;28;20455;-57
2023/05/17 08:02:28;;;;;;;7.87;2.20;;;17.90;58.50;;;;;;5073441;28;20476;-57
2023/05/17 08:04:55;;;;;;;10.60;2.57;;;17.90;58.10;;;;;;5073080;28;20974;-57
2023/05/17 08:07:21;;;;;;;8.77;3.37;;;17.90;57.90;;;;;;5073442;28;20491;-57
2023/05/17 08:09:48;;;;;;;11.83;3.33;;;17.90;56.40;;;;;;5073039;28;20946;-57
2023/05/17 08:12:15;;;;;;;8.50;2.50;;;18.00;56.90;;;;;;5073298;28;20466;-57
2023/05/17 08:14:41;;;;;;;7.53;2.50;;;18.10;57.00;;;;;;5073262;28;20473;-57
2023/05/17 08:17:09;;;;;;;9.70;3.53;;;18.10;55.80;;;;;;5073393;28;20453;-57
2023/05/17 08:19:36;;;;;;;8.50;2.27;;;18.10;56.10;;;;;;5073225;28;20445;-57
2023/05/17 08:22:03;;;;;;;9.50;2.73;;;18.10;56.60;;;;;;5072833;28;20852;-57
2023/05/17 08:24:30;;;;;;;9.33;2.90;;;18.10;56.40;;;;;;5072903;28;20982;-57
2023/05/17 08:26:57;;;;;;;7.87;2.73;;;18.20;56.30;;;;;;5073230;28;20448;-57
2023/05/17 08:29:24;;;;;;;11.40;3.30;;;18.10;55.30;;;;;;5073206;28;20448;-58
2023/05/17 08:31:51;;;;;;;9.80;2.90;;;18.20;55.70;;;;;;5073188;28;20786;-57
2023/05/17 08:34:19;;;;;;;10.20;3.20;;;18.20;55.30;;;;;;5073073;28;20540;-57
2023/05/17 08:36:46;;;;;;;9.00;2.90;;;18.20;54.40;;;;;;5072649;28;20954;-57
2023/05/17 08:39:13;;;;;;;9.80;3.43;;;18.20;54.00;;;;;;5073078;28;20448;-57
2023/05/17 08:41:40;;;;;;;10.80;3.60;;;18.20;53.30;;;;;;5072971;28;20498;-57
2023/05/17 08:44:07;;;;;;;6.43;2.70;;;18.10;53.80;;;;;;5072877;28;20554;-57
2023/05/17 08:46:35;;;;;;;11.77;2.67;;;18.10;53.30;;;;;;5073115;28;20451;-57
2023/05/17 08:49:05;;;;;;;5.73;2.07;;;18.00;54.20;;;;;;5072972;28;20475;-57
2023/05/17 08:51:35;;;;;;;13.33;2.20;;;18.10;54.60;;;;;;5072629;28;20811;-57
2023/05/17 08:54:04;;;;;;;7.90;2.60;;;18.10;54.80;;;;;;5072813;28;20440;-57
2023/05/17 08:56:31;;;;;;;5.23;2.60;;;18.20;55.50;;;;;;5073120;28;20589;-58
2023/05/17 08:58:59;;;;;;;12.07;3.47;;;18.30;55.40;;;;;;5077249;28;20908;-58
2023/05/17 09:01:27;;;;;;;9.43;3.23;;;18.50;55.60;;;;;;5076748;28;20447;-57
2023/05/17 09:03:53;;;;;;;7.57;2.30;;;18.70;55.30;;;;;;5077001;28;20483;-58
2023/05/17 09:06:21;;;;;;;12.00;2.93;;;18.90;53.70;;;;;;5076479;28;21050;-57
2023/05/17 09:08:51;;;;;;;6.53;2.03;;;19.10;53.00;;;;;;5076354;28;20468;-58
2023/05/17 09:11:25;;;;;;;6.37;2.30;;;19.20;53.00;;;;;;5076682;28;20896;-58
2023/05/17 09:13:51;;;;;;;7.37;2.40;;;19.50;53.60;;;;;;5076750;28;20787;-58
2023/05/17 09:16:20;;;;;;;7.70;2.47;;;20.00;53.90;;;;;;5076644;28;20479;-57
2023/05/17 09:18:54;;;;;;;9.73;3.03;;;20.40;51.80;;;;;;5076737;28;20456;-57
2023/05/17 09:21:21;;;;;;;8.37;2.30;;;20.70;50.20;;;;;;5076301;28;20443;-57
2023/05/17 09:23:50;;;;;;;14.00;2.40;;;20.90;49.60;;;;;;5076161;28;20520;-57
2023/05/17 09:26:17;;;;;;;8.93;2.47;;;21.10;49.00;;;;;;5076917;28;20468;-57
2023/05/17 09:28:45;;;;;;;7.30;3.17;;;21.20;48.00;;;;;;5075850;28;20962;-57
2023/05/17 09:31:13;;;;;;;9.90;2.73;;;21.30;48.00;;;;;;5075808;28;20892;-57
2023/05/17 09:33:45;;;;;;;6.60;2.10;;;21.30;48.10;;;;;;5076079;28;20893;-58
2023/05/17 09:36:17;;;;;;;10.27;2.30;;;21.30;47.90;;;;;;5075914;28;20521;-58
2023/05/17 09:38:44;;;;;;;6.10;2.50;;;21.40;47.80;;;;;;5076512;28;20460;-58
2023/05/17 09:41:12;;;;;;;10.07;3.07;;;21.60;47.70;;;;;;5075856;28;20451;-58
2023/05/17 09:43:39;;;;;;;8.87;3.07;;;21.80;45.60;;;;;;5075750;28;20480;-58
2023/05/17 09:46:05;;;;;;;8.73;1.87;;;22.10;46.10;;;;;;5076197;28;20479;-58
2023/05/17 09:48:32;;;;;;;10.60;3.27;;;22.50;44.90;;;;;;5075751;28;20475;-58
2023/05/17 09:51:00;;;;;;;5.33;2.00;;;22.90;45.00;;;;;;5075964;28;20484;-58
2023/05/17 09:53:28;;;;;;;8.30;2.20;;;23.30;44.50;;;;;;5075402;28;20934;-58
2023/05/17 09:55:57;;;;;;;4.07;1.60;;;23.90;43.00;;;;;;5075710;28;20465;-58
2023/05/17 09:58:27;;;;;;;9.37;2.37;;;24.50;41.40;;;;;;5075616;28;20453;-58
2023/05/17 10:00:58;;;;;;;9.90;2.37;;;25.20;40.30;;;;;;5075562;28;20797;-58
2023/05/17 10:03:27;;;;;;;7.20;2.20;;;25.40;38.60;;;;;;5076034;28;20487;-58
2023/05/17 10:05:53;;;;;;;11.17;2.73;;;25.20;37.40;;;;;;5075379;28;20477;-58
2023/05/17 10:08:24;;;;;;;5.43;2.13;;;24.90;38.00;;;;;;5074554;28;20876;-58
2023/05/17 10:10:55;;;;;;;9.23;2.17;;;24.70;36.90;;;;;;5075391;28;20433;-58
2023/05/17 10:13:24;;;;;;;5.57;2.00;;;24.40;36.70;;;;;;5075331;28;20468;-57
2023/05/17 10:15:54;;;;;;;6.83;2.43;;;24.30;37.50;;;;;;5075156;28;20475;-57
2023/05/17 10:18:21;;;;;;;7.63;2.80;;;24.00;36.70;;;;;;5075258;28;20498;-57
2023/05/17 10:20:49;;;;;;;7.07;2.53;;;23.70;37.30;;;;;;5075069;28;20449;-57
2023/05/17 10:23:16;;;;;;;8.43;3.40;;;23.40;38.10;;;;;;5075074;28;20484;-57
2023/05/17 10:25:44;;;;;;;5.70;2.17;;;23.50;38.00;;;;;;5075124;28;20492;-57
2023/05/17 10:28:15;;;;;;;6.87;2.10;;;23.70;38.70;;;;;;5075017;28;20519;-57
2023/05/17 10:30:43;;;;;;;5.07;1.70;;;23.60;36.70;;;;;;5074980;28;20484;-57
2023/05/17 10:33:13;;;;;;;5.93;1.90;;;23.60;38.20;;;;;;5074867;28;20456;-58
2023/05/17 10:35:43;;;;;;;6.83;2.60;;;23.90;39.00;;;;;;5074827;28;20849;-57
2023/05/17 10:38:10;;;;;;;9.50;2.67;;;24.50;38.60;;;;;;5074879;28;20449;-57
2023/05/17 10:40:39;;;;;;;8.30;2.77;;;25.40;35.50;;;;;;5074866;28;20452;-57
2023/05/17 10:43:08;;;;;;;7.63;1.93;;;26.10;34.40;;;;;;5074776;28;20490;-58
2023/05/17 10:45:36;;;;;;;5.93;2.10;;;27.00;33.80;;;;;;5076160;28;20831;-57
2023/05/17 10:48:05;;;;;;;6.80;1.90;;;27.60;32.60;;;;;;5075823;28;20452;-57
2023/05/17 10:50:37;;;;;;;7.23;2.20;;;27.50;29.90;;;;;;5076281;28;20476;-58
2023/05/17 10:53:10;;;;;;;4.57;2.17;;;27.10;31.10;;;;;;5074967;28;20794;-58
2023/05/17 10:55:40;;;;;;;6.13;2.10;;;26.60;32.20;;;;;;5074634;28;20475;-58
2023/05/17 10:58:26;;;;;;;4.97;2.00;;;26.70;32.50;;;;;;5074633;28;20551;-58
2023/05/17 11:00:53;;;;;;;4.50;1.87;;;27.50;32.40;;;;;;5074643;28;20433;-57
2023/05/17 11:03:22;;;;;;;6.37;2.27;;;28.50;30.40;;;;;;5074360;28;20481;-58
2023/05/17 11:06:13;;;;;;;6.00;2.53;;;29.00;28.90;;;;;;5074452;28;20472;-58
2023/05/17 11:08:46;;;;;;;4.27;1.80;;;28.70;28.50;;;;;;5073880;28;20463;-58
2023/05/17 11:11:16;;;;;;;6.80;2.70;;;28.30;29.90;;;;;;5074083;28;20964;-58
2023/05/17 11:13:52;;;;;;;6.50;1.80;;;28.70;29.40;;;;;;5074454;28;20429;-58
2023/05/17 11:16:22;;;;;;;5.43;1.70;;;29.50;29.30;;;;;;5073803;28;21046;-58
2023/05/17 11:18:51;;;;;;;4.83;2.00;;;30.40;28.50;;;;;;5073990;28;20452;-58
2023/05/17 11:21:20;;;;;;;6.53;2.07;;;31.30;26.50;;;;;;5073906;28;20519;-58
2023/05/17 11:23:48;;;;;;;5.93;1.90;;;32.10;25.40;;;;;;5073972;28;20537;-58
2023/05/17 11:26:22;;;;;;;5.97;2.50;;;33.00;25.80;;;;;;5073618;28;21084;-58
2023/05/17 11:28:49;;;;;;;7.13;2.70;;;33.80;24.80;;;;;;5073935;28;20478;-58
2023/05/17 11:31:15;;;;;;;6.53;2.20;;;34.70;23.70;;;;;;5073992;28;20448;-58
2023/05/17 11:33:45;;;;;;;7.50;2.40;;;35.20;22.90;;;;;;5075190;28;20202;-59
2023/05/17 11:36:20;;;;;;;8.40;3.00;;;35.50;22.40;;;;;;5076297;28;20313;-58
2023/05/17 11:38:49;;;;;;;5.43;2.00;;;35.60;20.80;;;;;;5075219;28;20193;-58
2023/05/17 11:41:18;;;;;;;6.40;2.20;;;35.00;21.50;;;;;;5074538;28;20198;-58
2023/05/17 11:43:49;;;;;;;6.97;2.37;;;34.70;21.50;;;;;;5073606;28;20222;-58
2023/05/17 11:46:20;;;;;;;5.53;2.43;;;34.10;21.70;;;;;;5073607;28;20225;-58
2023/05/17 11:48:48;;;;;;;5.97;2.50;;;33.10;22.10;;;;;;5073217;28;21012;-58
2023/05/17 11:51:15;;;;;;;5.20;1.80;;;32.70;23.20;;;;;;5073664;28;20542;-58
2023/05/17 11:53:45;;;;;;;4.17;1.70;;;32.80;23.80;;;;;;5073516;28;20471;-58
2023/05/17 11:56:13;;;;;;;5.17;1.97;;;33.50;24.50;;;;;;5073529;28;20558;-58
2023/05/17 11:58:42;;;;;;;6.63;2.70;;;33.90;22.20;;;;;;5073428;28;20452;-58
2023/05/17 12:01:09;;;;;;;6.70;2.50;;;33.60;22.40;;;;;;5073178;28;20495;-58
2023/05/17 12:03:36;;;;;;;4.87;2.20;;;33.40;21.10;;;;;;5073815;28;20523;-58
2023/05/17 12:06:05;;;;;;;3.93;1.77;;;33.70;22.20;;;;;;5073367;28;20521;-58
2023/05/17 12:08:33;;;;;;;5.50;2.60;;;34.00;22.10;;;;;;5073161;28;20464;-58
2023/05/17 12:11:02;;;;;;;8.00;2.87;;;34.10;21.30;;;;;;5073316;28;20853;-57
2023/05/17 12:13:29;;;;;;;3.70;2.00;;;33.30;21.90;;;;;;5073449;28;20439;-57
2023/05/17 12:15:57;;;;;;;6.67;1.80;;;32.70;22.50;;;;;;5073175;28;20464;-57
2023/05/17 12:18:35;;;;;;;6.10;2.40;;;32.80;22.80;;;;;;5073178;28;20451;-58
2023/05/17 12:21:01;;;;;;;3.90;1.77;;;33.50;22.20;;;;;;5073541;28;20446;-57
2023/05/17 12:23:29;;;;;;;6.07;2.20;;;34.20;21.40;;;;;;5073129;28;20487;-58
2023/05/17 12:26:08;;;;;;;5.73;2.13;;;34.40;20.40;;;;;;5073079;28;20507;-58
2023/05/17 12:28:36;;;;;;;3.40;1.90;;;34.90;21.70;;;;;;5073150;28;20432;-58
2023/05/17 12:31:05;;;;;;;4.00;2.10;;;35.50;20.90;;;;;;5074130;28;20202;-58
2023/05/17 12:33:35;;;;;;;7.55;2.78;;;36.20;20.80;;;;;;5077222;28;20201;-58
2023/05/17 12:36:03;;;;;;;4.20;1.55;;;36.80;19.60;;;;;;5077019;28;20225;-58
2023/05/17 12:38:32;;;;;;;4.85;1.50;;;37.30;19.00;;;;;;5076981;28;20206;-58
2023/05/17 12:41:03;;;;;;;9.05;2.13;;;37.50;19.20;;;;;;5077101;28;20309;-58
2023/05/17 12:43:33;;;;;;;6.25;2.08;;;37.90;18.10;;;;;;5076641;28;20255;-58
2023/05/17 12:46:06;;;;;;;4.60;1.70;;;38.60;18.10;;;;;;5077014;28;20310;-58